createdAt,value
2024-03-03T00:00:28.414Z,46.51
2024-03-03T00:02:59.071Z,46.27
2024-03-03T00:05:29.898Z,45.99
2024-03-03T00:08:00.666Z,45.88
2024-03-03T00:10:31.372Z,45.66
2024-03-03T00:13:02.466Z,45.69
2024-03-03T00:15:33.676Z,45.67
2024-03-03T00:18:06.316Z,45.50
2024-03-03T00:20:37.407Z,45.37
2024-03-03T00:23:08.255Z,45.31
2024-03-03T00:25:40.140Z,45.24
2024-03-03T00:28:11.502Z,45.00
2024-03-03T00:30:42.509Z,45.06
2024-03-03T00:33:14.968Z,45.10
2024-03-03T00:35:45.654Z,44.94
2024-03-03T00:38:16.441Z,45.07
2024-03-03T00:40:47.703Z,45.12
2024-03-03T00:43:18.573Z,44.81
2024-03-03T00:45:49.485Z,44.98
2024-03-03T00:48:20.384Z,44.89
2024-03-03T00:50:51.196Z,44.90
2024-03-03T00:53:23.605Z,44.74
2024-03-03T00:55:54.285Z,44.88
2024-03-03T00:58:25.109Z,44.66
2024-03-03T01:00:56.414Z,44.66
2024-03-03T01:03:27.872Z,44.67
2024-03-03T01:05:58.682Z,44.77
2024-03-03T01:08:29.400Z,44.65
2024-03-03T01:11:00.335Z,44.67
2024-03-03T01:13:31.164Z,44.81
2024-03-03T01:16:02.213Z,44.75
2024-03-03T01:18:33.423Z,44.97
2024-03-03T01:21:05.071Z,44.85
2024-03-03T01:23:36.204Z,44.88
2024-03-03T01:26:07.372Z,44.79
2024-03-03T01:28:38.179Z,44.75
2024-03-03T01:31:09.267Z,44.80
2024-03-03T01:33:40.258Z,44.78
2024-03-03T01:36:12.428Z,44.81
2024-03-03T01:38:43.298Z,44.89
2024-03-03T01:41:14.333Z,44.92
2024-03-03T01:43:45.457Z,44.95
2024-03-03T01:46:17.717Z,44.83
2024-03-03T01:48:50.252Z,44.75
2024-03-03T01:51:21.803Z,44.76
2024-03-03T01:53:54.544Z,44.83
2024-03-03T01:56:28.983Z,44.92
2024-03-03T01:59:00.665Z,44.78
2024-03-03T02:01:33.303Z,44.94
2024-03-03T02:04:04.587Z,44.80
2024-03-03T02:06:37.363Z,44.79
2024-03-03T02:09:09.312Z,45.00
2024-03-03T02:11:40.683Z,45.05
2024-03-03T02:14:11.810Z,45.05
2024-03-03T02:16:43.453Z,45.07
2024-03-03T02:19:14.222Z,45.15
2024-03-03T02:21:46.389Z,45.01
2024-03-03T02:24:17.111Z,45.11
2024-03-03T02:26:48.468Z,45.05
2024-03-03T02:29:20.100Z,45.11
2024-03-03T02:31:51.501Z,45.15
2024-03-03T02:34:23.114Z,45.16
2024-03-03T02:36:54.155Z,45.22
2024-03-03T02:39:24.922Z,45.27
2024-03-03T02:41:55.938Z,45.33
2024-03-03T02:44:27.086Z,45.26
2024-03-03T02:46:57.709Z,45.24
2024-03-03T02:49:28.344Z,45.39
2024-03-03T02:51:59.244Z,45.37
2024-03-03T02:54:30.579Z,45.39
2024-03-03T02:57:01.317Z,45.44
2024-03-03T02:59:31.965Z,45.39
2024-03-03T03:02:02.749Z,45.45
2024-03-03T03:04:33.527Z,45.41
2024-03-03T03:07:04.306Z,45.38
2024-03-03T03:09:35.027Z,45.36
2024-03-03T03:12:06.510Z,45.39
2024-03-03T03:14:37.217Z,45.34
2024-03-03T03:17:08.782Z,45.36
2024-03-03T03:19:39.464Z,45.39
2024-03-03T03:22:10.580Z,45.33
2024-03-03T03:24:41.391Z,45.39
2024-03-03T03:27:12.223Z,45.45
2024-03-03T03:29:42.952Z,45.46
2024-03-03T03:32:13.887Z,45.46
2024-03-03T03:34:47.915Z,45.51
2024-03-03T03:37:19.126Z,45.51
2024-03-03T03:39:50.287Z,45.51
2024-03-03T03:42:21.458Z,45.51
2024-03-03T03:44:52.394Z,45.57
2024-03-03T03:47:24.253Z,45.49
2024-03-03T03:49:54.904Z,45.55
2024-03-03T03:52:25.884Z,45.55
2024-03-03T03:54:56.757Z,45.61
2024-03-03T03:57:27.587Z,45.61
2024-03-03T03:59:58.218Z,45.63
2024-03-03T04:02:30.607Z,45.69
2024-03-03T04:05:02.447Z,45.69
2024-03-03T04:07:33.621Z,45.64
2024-03-03T04:10:04.491Z,45.70
2024-03-03T04:12:35.426Z,45.75
2024-03-03T04:15:08.666Z,45.79
2024-03-03T04:17:39.375Z,45.76
2024-03-03T04:20:12.244Z,45.78
2024-03-03T04:22:42.977Z,45.85
2024-03-03T04:25:14.358Z,45.84
2024-03-03T04:27:45.310Z,45.82
2024-03-03T04:30:16.450Z,45.86
2024-03-03T04:32:47.864Z,45.91
2024-03-03T04:35:19.017Z,45.96
2024-03-03T04:37:49.686Z,46.01
2024-03-03T04:40:20.735Z,45.92
2024-03-03T04:42:52.017Z,46.07
2024-03-03T04:45:22.907Z,46.04
2024-03-03T04:47:53.852Z,46.13
2024-03-03T04:50:24.631Z,46.03
2024-03-03T04:52:55.309Z,46.06
2024-03-03T04:55:26.001Z,46.12
2024-03-03T04:57:57.499Z,46.10
2024-03-03T05:00:28.157Z,46.11
2024-03-03T05:02:59.151Z,46.18
2024-03-03T05:05:29.760Z,46.21
2024-03-03T05:08:00.595Z,46.17
2024-03-03T05:10:31.330Z,46.22
2024-03-03T05:13:03.453Z,46.19
2024-03-03T05:15:37.582Z,46.36
2024-03-03T05:18:08.886Z,46.39
2024-03-03T05:20:39.609Z,46.27
2024-03-03T05:23:10.323Z,46.42
2024-03-03T05:25:41.793Z,46.49
2024-03-03T05:28:12.597Z,46.42
2024-03-03T05:30:43.838Z,46.47
2024-03-03T05:33:14.822Z,46.46
2024-03-03T05:35:46.284Z,46.32
2024-03-03T05:38:17.420Z,46.42
2024-03-03T05:40:48.362Z,46.45
2024-03-03T05:43:19.460Z,46.48
2024-03-03T05:45:50.648Z,46.44
2024-03-03T05:48:21.591Z,46.44
2024-03-03T05:50:52.329Z,46.39
2024-03-03T05:53:23.091Z,46.44
2024-03-03T05:55:53.814Z,46.44
2024-03-03T05:58:24.829Z,46.51
2024-03-03T06:00:55.700Z,46.43
2024-03-03T06:03:26.549Z,46.50
2024-03-03T06:05:57.462Z,46.58
2024-03-03T06:08:28.449Z,46.57
2024-03-03T06:10:59.249Z,46.53
2024-03-03T06:13:30.012Z,46.52
2024-03-03T06:16:00.754Z,46.46
2024-03-03T06:18:31.762Z,46.46
2024-03-03T06:21:02.518Z,46.46
2024-03-03T06:23:33.226Z,46.57
2024-03-03T06:26:04.077Z,46.44
2024-03-03T06:28:34.790Z,46.46
2024-03-03T06:31:05.984Z,46.43
2024-03-03T06:33:36.852Z,46.48
2024-03-03T06:36:09.160Z,46.44
2024-03-03T06:38:40.015Z,46.53
2024-03-03T06:41:10.721Z,46.76
2024-03-03T06:43:42.723Z,47.07
2024-03-03T06:46:13.982Z,47.12
2024-03-03T06:48:45.023Z,47.21
2024-03-03T06:51:15.937Z,47.39
2024-03-03T06:53:46.842Z,47.64
2024-03-03T06:56:18.925Z,47.64
2024-03-03T06:58:50.953Z,47.78
2024-03-03T07:01:22.124Z,47.92
2024-03-03T07:04:09.507Z,47.86
2024-03-03T07:06:41.843Z,48.06
2024-03-03T07:09:12.722Z,48.08
2024-03-03T07:11:43.511Z,48.25
2024-03-03T07:14:14.307Z,48.35
2024-03-03T07:16:44.972Z,48.41
2024-03-03T07:19:15.921Z,48.53
2024-03-03T07:21:46.897Z,48.61
2024-03-03T07:24:18.341Z,48.67
2024-03-03T07:26:49.020Z,48.74
2024-03-03T07:29:20.011Z,48.82
2024-03-03T07:31:50.677Z,49.01
2024-03-03T07:34:22.145Z,49.06
2024-03-03T07:36:53.568Z,49.11
2024-03-03T07:39:24.419Z,49.19
2024-03-03T07:41:55.177Z,49.18
2024-03-03T07:44:25.952Z,49.29
2024-03-03T07:46:56.747Z,49.24
2024-03-03T07:49:27.510Z,49.31
2024-03-03T07:51:58.449Z,49.28
2024-03-03T07:54:29.148Z,49.33
2024-03-03T07:56:59.786Z,49.41
2024-03-03T07:59:31.082Z,49.50
2024-03-03T08:02:02.393Z,49.52
2024-03-03T08:04:34.284Z,49.46
2024-03-03T08:07:05.411Z,49.64
2024-03-03T08:09:36.171Z,49.65
2024-03-03T08:12:08.652Z,49.63
2024-03-03T08:14:39.569Z,49.77
2024-03-03T08:17:10.554Z,49.86
2024-03-03T08:19:41.321Z,49.77
2024-03-03T08:22:12.015Z,49.78
2024-03-03T08:24:43.893Z,49.69
2024-03-03T08:27:14.730Z,49.65
2024-03-03T08:29:45.738Z,49.65
2024-03-03T08:32:16.658Z,49.64
2024-03-03T08:34:47.468Z,49.58
2024-03-03T08:37:18.417Z,49.60
2024-03-03T08:39:49.552Z,49.60
2024-03-03T08:42:20.622Z,49.49
2024-03-03T08:44:51.879Z,49.66
2024-03-03T08:47:23.202Z,49.55
2024-03-03T08:49:54.175Z,49.58
2024-03-03T08:52:25.344Z,49.57
2024-03-03T08:54:56.488Z,49.62
2024-03-03T08:57:27.492Z,49.55
2024-03-03T08:59:59.251Z,49.55
2024-03-03T09:02:30.666Z,49.65
2024-03-03T09:05:03.044Z,49.69
2024-03-03T09:07:33.881Z,49.66
2024-03-03T09:10:05.777Z,49.64
2024-03-03T09:12:37.089Z,49.69
2024-03-03T09:15:09.441Z,49.64
2024-03-03T09:17:40.655Z,49.76
2024-03-03T09:20:13.251Z,49.55
2024-03-03T09:22:44.200Z,49.89
2024-03-03T09:25:15.170Z,49.76
2024-03-03T09:27:46.138Z,49.55
2024-03-03T09:30:18.284Z,49.52
2024-03-03T09:32:52.676Z,49.52
2024-03-03T09:35:23.658Z,49.73
2024-03-03T09:37:54.802Z,49.73
2024-03-03T09:40:27.356Z,49.65
2024-03-03T09:43:02.152Z,49.61
2024-03-03T09:45:34.427Z,49.49
2024-03-03T09:48:09.893Z,49.52
2024-03-03T09:50:42.511Z,49.37
2024-03-03T09:53:14.334Z,49.41
2024-03-03T09:55:47.279Z,49.42
2024-03-03T09:58:19.076Z,49.41
2024-03-03T10:00:52.049Z,49.39
2024-03-03T10:03:26.861Z,49.52
2024-03-03T10:06:00.066Z,49.47
2024-03-03T10:08:32.061Z,49.22
2024-03-03T10:11:07.620Z,49.36
2024-03-03T10:13:38.671Z,49.50
2024-03-03T10:16:11.584Z,49.04
2024-03-03T10:18:42.821Z,49.30
2024-03-03T10:21:15.318Z,49.09
2024-03-03T10:23:46.204Z,49.21
2024-03-03T10:26:17.510Z,49.03
2024-03-03T10:29:06.427Z,49.18
2024-03-03T10:31:37.301Z,49.12
2024-03-03T10:34:10.645Z,48.90
2024-03-03T10:36:42.602Z,48.89
2024-03-03T10:39:14.026Z,48.95
2024-03-03T10:41:45.225Z,48.97
2024-03-03T10:44:16.310Z,48.91
2024-03-03T10:46:49.865Z,48.72
2024-03-03T10:49:21.618Z,48.65
2024-03-03T10:51:53.181Z,48.66
2024-03-03T10:54:24.733Z,48.78
2024-03-03T10:56:56.456Z,48.69
2024-03-03T10:59:32.267Z,48.80
2024-03-03T11:02:05.370Z,48.60
2024-03-03T11:04:39.899Z,48.56
2024-03-03T11:07:13.742Z,48.55
2024-03-03T11:09:46.992Z,48.47
2024-03-03T11:12:21.943Z,48.35
2024-03-03T11:14:57.456Z,48.47
2024-03-03T11:17:35.157Z,48.37
2024-03-03T11:20:11.214Z,48.39
2024-03-03T11:22:48.592Z,48.51
2024-03-03T11:25:24.198Z,48.35
2024-03-03T11:28:01.076Z,48.25
2024-03-03T11:30:34.611Z,48.40
2024-03-03T11:33:07.062Z,48.22
2024-03-03T11:35:40.225Z,48.12
2024-03-03T11:38:12.798Z,47.96
2024-03-03T11:40:47.253Z,47.83
2024-03-03T11:43:18.875Z,47.95
2024-03-03T11:45:52.030Z,47.86
2024-03-03T11:48:23.777Z,47.87
2024-03-03T11:51:15.397Z,47.79
2024-03-03T11:53:59.470Z,47.67
2024-03-03T11:56:33.077Z,47.71
2024-03-03T11:59:04.905Z,47.70
2024-03-03T12:01:36.731Z,47.74
2024-03-03T12:04:08.456Z,47.64
2024-03-03T12:06:41.202Z,47.56
2024-03-03T12:09:15.213Z,47.89
2024-03-03T12:11:49.597Z,47.66
2024-03-03T12:14:21.658Z,47.68
2024-03-03T12:16:52.870Z,47.49
2024-03-03T12:19:23.813Z,47.42
2024-03-03T12:21:55.397Z,47.52
2024-03-03T12:24:28.180Z,47.60
2024-03-03T12:26:59.209Z,47.52
2024-03-03T12:29:30.301Z,47.46
2024-03-03T12:32:04.774Z,47.44
2024-03-03T12:34:37.826Z,47.61
2024-03-03T12:37:09.819Z,47.47
2024-03-03T12:39:40.772Z,47.46
2024-03-03T12:42:12.611Z,47.47
2024-03-03T12:44:44.725Z,47.44
2024-03-03T12:47:18.616Z,47.54
2024-03-03T12:49:49.837Z,47.45
2024-03-03T12:52:21.438Z,47.53
2024-03-03T12:54:52.906Z,47.64
2024-03-03T12:57:27.806Z,47.60
2024-03-03T12:59:59.879Z,47.64
2024-03-03T13:02:32.136Z,47.70
2024-03-03T13:05:03.807Z,47.65
2024-03-03T13:07:35.839Z,47.64
2024-03-03T13:10:19.416Z,47.40
2024-03-03T13:12:53.490Z,47.70
2024-03-03T13:15:26.865Z,47.46
2024-03-03T13:18:10.585Z,47.53
2024-03-03T13:20:41.775Z,47.64
2024-03-03T13:23:14.754Z,47.61
2024-03-03T13:25:46.246Z,47.50
2024-03-03T13:28:18.587Z,47.67
2024-03-03T13:31:01.019Z,47.51
2024-03-03T13:33:35.068Z,47.56
2024-03-03T13:36:09.116Z,47.47
2024-03-03T13:38:41.687Z,47.43
2024-03-03T13:41:12.964Z,47.57
2024-03-03T13:43:43.987Z,47.48
2024-03-03T13:46:15.008Z,47.49
2024-03-03T13:48:46.075Z,47.56
2024-03-03T13:51:18.031Z,47.74
2024-03-03T13:53:51.501Z,47.51
2024-03-03T13:56:32.768Z,47.56
2024-03-03T13:59:04.741Z,47.52
2024-03-03T14:01:46.069Z,47.56
2024-03-03T14:04:19.580Z,47.43
2024-03-03T14:06:51.276Z,47.47
2024-03-03T14:09:23.576Z,47.45
2024-03-03T14:11:56.260Z,47.40
2024-03-03T14:14:27.582Z,47.49
2024-03-03T14:16:59.282Z,47.53
2024-03-03T14:19:30.642Z,47.35
2024-03-03T14:22:01.545Z,47.51
2024-03-03T14:24:32.405Z,47.57
2024-03-03T14:27:05.028Z,47.57
2024-03-03T14:29:35.732Z,47.46
2024-03-03T14:32:07.390Z,47.50
2024-03-03T14:34:38.411Z,47.39
2024-03-03T14:37:09.404Z,47.47
2024-03-03T14:39:40.480Z,47.44
2024-03-03T14:42:12.054Z,47.62
2024-03-03T14:44:43.688Z,47.59
2024-03-03T14:47:16.078Z,47.56
2024-03-03T14:49:47.841Z,47.40
2024-03-03T14:52:18.970Z,47.51
2024-03-03T14:54:50.232Z,47.38
2024-03-03T14:57:21.323Z,47.47
2024-03-03T14:59:52.229Z,47.40
2024-03-03T15:02:23.517Z,47.19
2024-03-03T15:04:55.016Z,47.61
2024-03-03T15:07:27.174Z,47.40
2024-03-03T15:09:59.844Z,47.51
2024-03-03T15:12:31.229Z,47.38
2024-03-03T15:15:05.092Z,47.54
2024-03-03T15:17:36.733Z,47.54
2024-03-03T15:20:13.742Z,47.47
2024-03-03T15:22:47.377Z,47.61
2024-03-03T15:25:21.021Z,47.65
2024-03-03T15:27:53.071Z,47.45
2024-03-03T15:30:24.922Z,47.68
2024-03-03T15:32:56.829Z,47.78
2024-03-03T15:35:28.681Z,47.62
2024-03-03T15:38:01.538Z,47.58
2024-03-03T15:40:32.962Z,47.69
2024-03-03T15:43:05.130Z,47.88
2024-03-03T15:45:39.146Z,47.70
2024-03-03T15:48:14.990Z,47.80
2024-03-03T15:50:49.207Z,47.99
2024-03-03T15:53:21.032Z,47.89
2024-03-03T15:55:55.239Z,47.93
2024-03-03T15:58:27.606Z,47.88
2024-03-03T16:00:59.032Z,48.01
2024-03-03T16:03:30.644Z,47.95
2024-03-03T16:06:01.809Z,47.99
2024-03-03T16:08:33.020Z,48.10
2024-03-03T16:11:04.087Z,48.04
2024-03-03T16:13:35.476Z,48.05
2024-03-03T16:16:06.954Z,47.97
2024-03-03T16:18:38.219Z,48.14
2024-03-03T16:21:09.859Z,48.18
2024-03-03T16:23:41.655Z,48.23
2024-03-03T16:26:12.790Z,48.33
2024-03-03T16:28:43.873Z,48.26
2024-03-03T16:31:16.215Z,48.29
2024-03-03T16:33:47.701Z,48.23
2024-03-03T16:36:20.440Z,48.33
2024-03-03T16:38:54.160Z,48.27
2024-03-03T16:41:27.130Z,48.25
2024-03-03T16:43:58.640Z,48.42
2024-03-03T16:46:29.805Z,48.51
2024-03-03T16:49:02.463Z,48.40
2024-03-03T16:51:33.373Z,48.30
2024-03-03T16:54:04.936Z,48.59
2024-03-03T16:56:37.104Z,48.30
2024-03-03T16:59:09.195Z,48.51
2024-03-03T17:01:40.346Z,48.57
2024-03-03T17:04:11.896Z,48.62
2024-03-03T17:06:43.015Z,48.55
2024-03-03T17:09:14.118Z,48.69
2024-03-03T17:11:45.045Z,48.46
2024-03-03T17:14:16.701Z,48.65
2024-03-03T17:16:50.776Z,48.65
2024-03-03T17:19:22.803Z,48.81
2024-03-03T17:21:54.031Z,48.61
2024-03-03T17:24:25.435Z,48.76
2024-03-03T17:26:56.694Z,48.72
2024-03-03T17:29:27.873Z,48.67
2024-03-03T17:31:59.716Z,48.71
2024-03-03T17:34:30.916Z,48.62
2024-03-03T17:37:01.981Z,48.67
2024-03-03T17:39:33.326Z,48.63
2024-03-03T17:42:04.827Z,48.63
2024-03-03T17:44:36.348Z,48.62
2024-03-03T17:47:08.131Z,48.68
2024-03-03T17:49:40.052Z,48.51
2024-03-03T17:52:11.380Z,48.41
2024-03-03T17:54:42.349Z,48.54
2024-03-03T17:57:13.943Z,48.50
2024-03-03T17:59:47.417Z,48.66
2024-03-03T18:02:19.126Z,48.53
2024-03-03T18:04:50.798Z,48.63
2024-03-03T18:07:22.671Z,48.50
2024-03-03T18:09:54.317Z,48.59
2024-03-03T18:12:26.780Z,48.70
2024-03-03T18:14:58.266Z,48.60
2024-03-03T18:17:29.970Z,48.65
2024-03-03T18:20:01.373Z,48.62
2024-03-03T18:22:32.460Z,48.64
2024-03-03T18:25:04.243Z,48.73
2024-03-03T18:27:38.664Z,48.66
2024-03-03T18:30:13.286Z,48.52
2024-03-03T18:32:44.965Z,48.52
2024-03-03T18:35:18.849Z,48.65
2024-03-03T18:37:50.371Z,48.65
2024-03-03T18:40:22.607Z,48.58
2024-03-03T18:42:54.069Z,48.66
2024-03-03T18:45:25.410Z,48.64
2024-03-03T18:47:57.364Z,48.69
2024-03-03T18:50:29.470Z,48.62
2024-03-03T18:53:01.162Z,48.75
2024-03-03T18:55:32.968Z,48.63
2024-03-03T18:58:04.539Z,48.70
2024-03-03T19:00:41.101Z,48.65
2024-03-03T19:03:14.659Z,48.58
2024-03-03T19:05:45.678Z,48.70
2024-03-03T19:08:17.165Z,48.64
2024-03-03T19:10:49.604Z,48.63
2024-03-03T19:13:20.983Z,48.62
2024-03-03T19:15:52.167Z,48.68
2024-03-03T19:18:24.023Z,48.65
2024-03-03T19:20:56.028Z,48.62
2024-03-03T19:23:29.176Z,48.51
2024-03-03T19:26:00.343Z,48.61
2024-03-03T19:28:32.035Z,48.47
2024-03-03T19:31:04.904Z,48.50
2024-03-03T19:33:35.869Z,48.48
2024-03-03T19:36:07.824Z,48.39
2024-03-03T19:38:39.032Z,48.37
2024-03-03T19:41:11.388Z,48.54
2024-03-03T19:43:42.735Z,48.53
2024-03-03T19:46:13.838Z,48.61
2024-03-03T19:48:45.547Z,48.71
2024-03-03T19:51:22.229Z,48.98
2024-03-03T19:53:53.613Z,48.93
2024-03-03T19:56:25.512Z,48.91
2024-03-03T19:58:57.014Z,48.86
2024-03-03T20:01:28.394Z,48.95
2024-03-03T20:03:59.747Z,49.03
2024-03-03T20:06:30.711Z,49.15
2024-03-03T20:09:02.252Z,49.01
2024-03-03T20:11:33.441Z,49.11
2024-03-03T20:14:04.426Z,49.14
2024-03-03T20:16:35.587Z,49.11
2024-03-03T20:19:06.805Z,49.07
2024-03-03T20:21:37.861Z,49.14
2024-03-03T20:24:14.214Z,49.04
2024-03-03T20:26:45.605Z,49.16
2024-03-03T20:29:16.804Z,49.07
2024-03-03T20:31:47.892Z,49.20
2024-03-03T20:34:19.241Z,49.04
2024-03-03T20:36:50.267Z,48.98
2024-03-03T20:39:21.431Z,48.56
2024-03-03T20:41:52.930Z,48.49
2024-03-03T20:44:23.995Z,48.66
2024-03-03T20:46:54.854Z,48.67
2024-03-03T20:49:25.813Z,48.74
2024-03-03T20:51:56.663Z,48.77
2024-03-03T20:54:27.573Z,48.79
2024-03-03T20:56:58.755Z,48.64
2024-03-03T20:59:30.142Z,48.68
2024-03-03T21:02:01.080Z,48.62
2024-03-03T21:04:33.973Z,48.61
2024-03-03T21:07:05.567Z,48.57
2024-03-03T21:09:36.605Z,48.60
2024-03-03T21:12:09.448Z,48.61
2024-03-03T21:14:40.449Z,48.63
2024-03-03T21:17:11.286Z,48.62
2024-03-03T21:19:42.382Z,48.62
2024-03-03T21:22:13.306Z,48.71
2024-03-03T21:24:44.226Z,48.64
2024-03-03T21:27:15.241Z,48.77
2024-03-03T21:29:46.211Z,48.80
2024-03-03T21:32:19.049Z,48.78
2024-03-03T21:34:50.663Z,48.77
2024-03-03T21:37:21.488Z,48.75
2024-03-03T21:39:52.579Z,48.82
2024-03-03T21:42:23.595Z,48.81
2024-03-03T21:44:54.393Z,48.93
2024-03-03T21:47:26.303Z,48.79
2024-03-03T21:49:57.209Z,48.88
2024-03-03T21:52:28.571Z,48.89
2024-03-03T21:54:59.605Z,48.94
2024-03-03T21:57:30.444Z,48.94
2024-03-03T22:00:01.308Z,48.83
2024-03-03T22:02:32.279Z,48.89
2024-03-03T22:05:03.807Z,48.96
2024-03-03T22:07:34.675Z,48.92
2024-03-03T22:10:06.588Z,48.86
2024-03-03T22:12:37.352Z,49.02
2024-03-03T22:15:09.568Z,49.01
2024-03-03T22:17:40.406Z,49.05
2024-03-03T22:20:13.350Z,49.11
2024-03-03T22:22:44.397Z,49.15
2024-03-03T22:25:15.333Z,49.19
2024-03-03T22:27:46.112Z,49.22
2024-03-03T22:30:17.553Z,49.28
2024-03-03T22:32:49.048Z,49.31
2024-03-03T22:35:22.272Z,49.43
2024-03-03T22:37:53.437Z,49.45
2024-03-03T22:40:29.253Z,49.55
2024-03-03T22:43:00.347Z,49.57
2024-03-03T22:45:31.171Z,49.63
2024-03-03T22:48:01.966Z,49.57
2024-03-03T22:50:32.743Z,49.72
2024-03-03T22:53:03.570Z,49.83
2024-03-03T22:55:34.892Z,49.79
2024-03-03T22:58:06.134Z,49.91
2024-03-03T23:00:39.601Z,49.85
2024-03-03T23:03:12.079Z,49.94
2024-03-03T23:05:42.798Z,50.03
2024-03-03T23:08:13.657Z,50.04
2024-03-03T23:10:44.473Z,50.03
2024-03-03T23:13:15.468Z,49.97
2024-03-03T23:15:46.158Z,50.10
2024-03-03T23:18:17.294Z,50.09
2024-03-03T23:20:48.702Z,50.23
2024-03-03T23:23:19.376Z,50.15
2024-03-03T23:25:50.401Z,50.23
2024-03-03T23:28:21.719Z,50.24
2024-03-03T23:30:52.560Z,50.30
2024-03-03T23:33:23.286Z,50.30
2024-03-03T23:35:54.018Z,50.33
2024-03-03T23:38:24.732Z,50.28
2024-03-03T23:40:55.589Z,50.43
2024-03-03T23:43:26.341Z,50.33
2024-03-03T23:45:57.607Z,50.32
2024-03-03T23:48:28.307Z,50.45
2024-03-03T23:50:59.897Z,50.57
2024-03-03T23:53:30.797Z,50.47
2024-03-03T23:56:04.791Z,50.70
2024-03-03T23:58:35.806Z,50.73
